To NAV CANADA Home Page Login to a new session Search on AWWS site Disclaimer Vers la page française équivalente Tips FAQ What's new on the site To the Forecasts and Observations / NOTAM section To "File a Flight Plan" website Publications and other links Update of the User's profile FIC Telephone Numbers My Weather Data Folder Route Weather Data Regional Weather Data Local Weather Data To the Forecasts and Observations / NOTAM section
Request Generated 10/19/2018 at 16:11:29 UTC . Weather information available at that time is displayed.

METAR/TAF

SAINT JOHN/NB    

METAR CYSJ 191600Z 28011KT 230V300 15SM FEW030 BKN066 04/M06 A3007 RMK CU1AC5 SLP189=
METAR CYSJ 191500Z 26009G15KT 240V300 15SM FEW030 SCT160 03/M07 A3009 RMK CU1AC2 SLP196=
METAR CYSJ 191400Z 30009G15KT 15SM FEW030 FEW160 SCT300 02/M08 A3011 RMK CU1AC1CI1 SLP202=

TAF CYSJ 191138Z 1912/1924 28006KT P6SM FEW020 SCT180
FM191800 23012G22KT P6SM BKN030
RMK NXT FCST BY 191800Z=
Your time UTC time
Weather data provided by Environment Canada and NAV CANADA